createdAt,value
2023-01-29T00:01:42.793Z,7.41
2023-01-29T00:04:09.331Z,7.40
2023-01-29T00:06:36.162Z,7.40
2023-01-29T00:09:02.933Z,7.38
2023-01-29T00:11:31.391Z,7.36
2023-01-29T00:13:58.231Z,7.34
2023-01-29T00:16:25.097Z,7.33
2023-01-29T00:18:51.725Z,7.32
2023-01-29T00:21:20.665Z,7.30
2023-01-29T00:23:47.194Z,7.27
2023-01-29T00:26:14.609Z,7.23
2023-01-29T00:28:41.383Z,7.22
2023-01-29T00:31:09.102Z,7.19
2023-01-29T00:33:36.071Z,7.18
2023-01-29T00:36:07.925Z,7.13
2023-01-29T00:38:34.900Z,7.13
2023-01-29T00:41:31.861Z,7.12
2023-01-29T00:44:17.717Z,7.09
2023-01-29T00:46:44.751Z,7.10
2023-01-29T00:49:11.648Z,7.07
2023-01-29T00:51:39.355Z,7.09
2023-01-29T00:54:06.934Z,7.08
2023-01-29T00:56:36.150Z,7.07
2023-01-29T00:59:04.266Z,7.06
2023-01-29T01:01:49.236Z,7.06
2023-01-29T01:04:15.859Z,7.05
2023-01-29T01:06:42.993Z,7.06
2023-01-29T01:09:29.250Z,7.03
2023-01-29T01:11:55.864Z,7.01
2023-01-29T01:14:22.413Z,6.98
2023-01-29T01:16:49.670Z,6.96
2023-01-29T01:19:16.359Z,6.94
2023-01-29T01:21:48.312Z,6.94
2023-01-29T01:24:15.456Z,6.91
2023-01-29T01:26:42.031Z,6.87
2023-01-29T01:29:09.193Z,6.81
2023-01-29T01:31:35.817Z,6.79
2023-01-29T01:34:02.457Z,6.75
2023-01-29T01:36:28.954Z,6.69
2023-01-29T01:38:55.554Z,6.60
2023-01-29T01:41:24.057Z,6.58
2023-01-29T01:43:57.516Z,6.51
2023-01-29T01:46:25.948Z,6.43
2023-01-29T01:48:57.230Z,6.38
2023-01-29T01:51:28.926Z,6.34
2023-01-29T01:54:03.639Z,6.36
2023-01-29T01:56:38.288Z,6.35
2023-01-29T01:59:09.752Z,6.35
2023-01-29T02:01:38.319Z,6.35
2023-01-29T02:04:27.367Z,6.34
2023-01-29T02:07:13.833Z,6.31
2023-01-29T02:09:49.550Z,6.34
2023-01-29T02:12:17.158Z,6.38
2023-01-29T02:14:44.689Z,6.38
2023-01-29T02:17:15.866Z,6.36
2023-01-29T02:20:00.783Z,6.38
2023-01-29T02:22:46.142Z,6.37
2023-01-29T02:25:18.321Z,6.36
2023-01-29T02:28:03.447Z,6.36
2023-01-29T02:30:40.703Z,6.35
2023-01-29T02:33:36.896Z,6.34
2023-01-29T02:36:24.517Z,6.36
2023-01-29T02:39:14.723Z,6.36
2023-01-29T02:41:54.412Z,6.35
2023-01-29T02:44:26.609Z,6.31
2023-01-29T02:47:33.327Z,6.31
2023-01-29T02:50:06.317Z,6.35
2023-01-29T02:52:37.233Z,6.29
2023-01-29T02:55:18.326Z,6.29
2023-01-29T02:57:48.866Z,6.27
2023-01-29T03:00:30.164Z,6.28
2023-01-29T03:03:12.266Z,6.29
2023-01-29T03:05:51.169Z,6.28
2023-01-29T03:08:37.128Z,6.27
2023-01-29T03:11:07.001Z,6.28
2023-01-29T03:13:37.007Z,6.29
2023-01-29T03:16:16.479Z,6.34
2023-01-29T03:18:50.902Z,6.41
2023-01-29T03:21:52.938Z,6.43
2023-01-29T03:24:53.434Z,6.44
2023-01-29T03:27:41.841Z,6.45
2023-01-29T03:30:31.500Z,6.45
2023-01-29T03:33:02.716Z,6.46
2023-01-29T03:35:37.463Z,6.45
2023-01-29T03:38:10.127Z,6.46
2023-01-29T03:40:57.880Z,6.46
2023-01-29T03:43:32.270Z,6.45
2023-01-29T03:46:08.918Z,6.44
2023-01-29T03:48:45.930Z,6.44
2023-01-29T03:53:58.899Z,6.44
2023-01-29T03:56:33.196Z,6.43
2023-01-29T03:59:15.262Z,6.43
2023-01-29T04:02:00.261Z,6.42
2023-01-29T04:04:38.747Z,6.40
2023-01-29T04:07:18.589Z,6.40
2023-01-29T04:09:58.570Z,6.39
2023-01-29T04:12:31.099Z,6.36
2023-01-29T04:15:01.578Z,6.36
2023-01-29T04:17:34.755Z,6.35
2023-01-29T04:20:02.772Z,6.33
2023-01-29T04:22:35.383Z,6.18
2023-01-29T04:25:15.968Z,6.08
2023-01-29T04:28:10.549Z,6.07
2023-01-29T04:31:00.504Z,6.04
2023-01-29T04:33:48.878Z,5.99
2023-01-29T04:36:35.389Z,5.99
2023-01-29T04:39:25.862Z,6.00
2023-01-29T04:42:07.392Z,6.04
2023-01-29T04:45:02.810Z,6.03
2023-01-29T04:47:41.232Z,5.97
2023-01-29T04:50:10.510Z,5.98
2023-01-29T04:53:04.618Z,5.94
2023-01-29T04:55:46.487Z,5.92
2023-01-29T04:58:17.581Z,5.95
2023-01-29T05:00:48.967Z,5.94
2023-01-29T05:03:16.461Z,5.93
2023-01-29T05:05:46.766Z,5.94
2023-01-29T05:08:16.987Z,5.93
2023-01-29T05:10:44.913Z,5.94
2023-01-29T05:13:15.012Z,5.92
2023-01-29T05:15:58.071Z,5.88
2023-01-29T05:18:24.724Z,5.82
2023-01-29T05:20:52.467Z,5.83
2023-01-29T05:23:21.731Z,5.76
2023-01-29T05:25:50.614Z,5.68
2023-01-29T05:28:17.559Z,5.70
2023-01-29T05:30:52.809Z,5.68
2023-01-29T05:33:20.844Z,5.61
2023-01-29T05:35:47.822Z,5.55
2023-01-29T05:38:15.354Z,5.51
2023-01-29T05:40:42.252Z,5.43
2023-01-29T05:43:18.265Z,5.34
2023-01-29T05:46:01.283Z,5.33
2023-01-29T05:48:29.608Z,5.28
2023-01-29T05:51:03.945Z,5.27
2023-01-29T05:53:31.251Z,5.20
2023-01-29T05:56:01.550Z,5.18
2023-01-29T05:58:28.199Z,5.20
2023-01-29T06:00:54.736Z,5.21
2023-01-29T06:03:21.230Z,5.21
2023-01-29T06:05:47.791Z,5.23
2023-01-29T06:08:14.404Z,5.24
2023-01-29T06:10:40.903Z,5.28
2023-01-29T06:13:08.047Z,5.28
2023-01-29T06:15:34.632Z,5.26
2023-01-29T06:18:01.177Z,5.26
2023-01-29T06:20:27.736Z,5.25
2023-01-29T06:22:54.260Z,5.20
2023-01-29T06:25:20.785Z,5.20
2023-01-29T06:27:50.916Z,5.17
2023-01-29T06:30:18.248Z,5.13
2023-01-29T06:32:45.047Z,5.10
2023-01-29T06:35:11.840Z,5.03
2023-01-29T06:37:38.407Z,4.96
2023-01-29T06:40:05.310Z,4.91
2023-01-29T06:42:31.780Z,4.87
2023-01-29T06:44:58.307Z,4.88
2023-01-29T06:47:25.252Z,4.82
2023-01-29T06:49:52.170Z,4.80
2023-01-29T06:52:18.956Z,4.77
2023-01-29T06:54:45.480Z,4.67
2023-01-29T06:57:11.984Z,4.66
2023-01-29T06:59:38.557Z,4.66
2023-01-29T07:02:05.091Z,4.65
2023-01-29T07:04:31.729Z,4.62
2023-01-29T07:07:00.000Z,4.62
2023-01-29T07:09:26.539Z,4.64
2023-01-29T07:11:53.024Z,4.62
2023-01-29T07:14:19.603Z,4.58
2023-01-29T07:16:46.077Z,4.59
2023-01-29T07:19:12.789Z,4.56
2023-01-29T07:21:39.323Z,4.56
2023-01-29T07:24:06.142Z,4.56
2023-01-29T07:26:32.681Z,4.52
2023-01-29T07:28:59.218Z,4.53
2023-01-29T07:31:25.833Z,4.46
2023-01-29T07:33:52.405Z,4.50
2023-01-29T07:36:19.588Z,4.52
2023-01-29T07:38:49.539Z,4.53
2023-01-29T07:41:16.102Z,4.53
2023-01-29T07:43:42.644Z,4.54
2023-01-29T07:46:09.251Z,4.56
2023-01-29T07:48:35.933Z,4.57
2023-01-29T07:51:02.659Z,4.54
2023-01-29T07:53:29.780Z,4.52
2023-01-29T07:55:56.531Z,4.55
2023-01-29T07:58:23.226Z,4.55
2023-01-29T08:00:49.820Z,4.51
2023-01-29T08:03:18.921Z,4.54
2023-01-29T08:05:46.182Z,4.58
2023-01-29T08:08:13.140Z,4.58
2023-01-29T08:10:40.094Z,4.59
2023-01-29T08:13:08.099Z,4.62
2023-01-29T08:15:37.197Z,4.62
2023-01-29T08:18:05.419Z,4.64
2023-01-29T08:20:32.075Z,4.64
2023-01-29T08:23:01.056Z,4.62
2023-01-29T08:25:28.032Z,4.66
2023-01-29T08:27:56.742Z,4.68
2023-01-29T08:30:29.311Z,4.71
2023-01-29T08:32:55.883Z,4.75
2023-01-29T08:35:22.506Z,4.77
2023-01-29T08:37:58.330Z,4.79
2023-01-29T08:40:25.609Z,4.85
2023-01-29T08:42:52.095Z,4.89
2023-01-29T08:45:18.913Z,4.91
2023-01-29T08:47:47.261Z,4.94
2023-01-29T08:50:14.033Z,4.95
2023-01-29T08:52:40.682Z,4.98
2023-01-29T08:55:07.659Z,5.01
2023-01-29T08:57:34.274Z,5.03
2023-01-29T09:00:01.077Z,5.05
2023-01-29T09:02:27.661Z,5.09
2023-01-29T09:04:54.487Z,5.14
2023-01-29T09:07:21.870Z,5.16
2023-01-29T09:09:48.403Z,5.19
2023-01-29T09:12:14.960Z,5.22
2023-01-29T09:14:41.552Z,5.24
2023-01-29T09:17:08.077Z,5.29
2023-01-29T09:19:34.649Z,5.30
2023-01-29T09:22:01.144Z,5.33
2023-01-29T09:24:27.654Z,5.35
2023-01-29T09:26:54.250Z,5.38
2023-01-29T09:29:20.798Z,5.40
2023-01-29T09:31:47.478Z,5.44
2023-01-29T09:34:14.243Z,5.47
2023-01-29T09:36:40.842Z,5.50
2023-01-29T09:39:07.531Z,5.55
2023-01-29T09:41:43.568Z,5.59
2023-01-29T09:44:29.223Z,5.63
2023-01-29T09:46:56.867Z,5.68
2023-01-29T09:49:29.222Z,5.73
2023-01-29T09:52:04.260Z,5.78
2023-01-29T09:54:35.154Z,5.81
2023-01-29T09:57:01.802Z,5.86
2023-01-29T09:59:31.257Z,5.89
2023-01-29T10:02:39.107Z,5.93
2023-01-29T10:05:18.060Z,5.97
2023-01-29T10:08:06.366Z,5.99
2023-01-29T10:10:44.508Z,6.02
2023-01-29T10:13:43.282Z,6.05
2023-01-29T10:16:42.247Z,6.08
2023-01-29T10:19:47.727Z,6.12
2023-01-29T10:22:43.447Z,6.16
2023-01-29T10:25:18.478Z,6.18
2023-01-29T10:27:54.108Z,6.23
2023-01-29T10:30:45.959Z,6.28
2023-01-29T10:33:18.819Z,6.34
2023-01-29T10:35:58.090Z,6.40
2023-01-29T10:38:59.122Z,6.45
2023-01-29T10:41:42.719Z,6.52
2023-01-29T10:44:37.539Z,6.57
2023-01-29T10:47:55.375Z,6.63
2023-01-29T10:50:39.240Z,6.67
2023-01-29T10:53:43.110Z,6.72
2023-01-29T10:56:24.329Z,6.73
2023-01-29T10:59:01.631Z,6.76
2023-01-29T11:01:28.241Z,6.80
2023-01-29T11:04:01.731Z,6.83
2023-01-29T11:06:28.206Z,6.87
2023-01-29T11:09:16.719Z,6.91
2023-01-29T11:11:54.107Z,6.95
2023-01-29T11:14:51.823Z,7.02
2023-01-29T11:17:20.622Z,7.08
2023-01-29T11:19:49.986Z,7.14
2023-01-29T11:22:20.151Z,7.21
2023-01-29T11:25:06.792Z,7.29
2023-01-29T11:27:35.685Z,7.36
2023-01-29T11:30:02.798Z,7.44
2023-01-29T11:32:33.648Z,7.49
2023-01-29T11:35:04.744Z,7.54
2023-01-29T11:37:39.320Z,7.60
2023-01-29T11:40:24.046Z,7.65
2023-01-29T11:42:53.699Z,7.68
2023-01-29T11:45:20.182Z,7.71
2023-01-29T11:47:55.943Z,7.74
2023-01-29T11:50:27.895Z,7.77
2023-01-29T11:52:54.991Z,7.78
2023-01-29T11:55:50.235Z,7.84
2023-01-29T11:58:22.203Z,7.87
2023-01-29T12:00:52.558Z,7.89
2023-01-29T12:03:32.010Z,7.94
2023-01-29T12:06:08.166Z,7.96
2023-01-29T12:08:39.946Z,8.01
2023-01-29T12:11:18.932Z,8.04
2023-01-29T12:13:54.387Z,8.11
2023-01-29T12:16:31.170Z,8.18
2023-01-29T12:19:39.432Z,8.27
2023-01-29T12:22:17.430Z,8.33
2023-01-29T12:24:46.666Z,8.38
2023-01-29T12:27:19.277Z,8.45
2023-01-29T12:30:11.736Z,8.53
2023-01-29T12:32:50.145Z,8.60
2023-01-29T12:35:24.942Z,8.71
2023-01-29T12:38:01.032Z,8.78
2023-01-29T12:40:33.768Z,8.82
2023-01-29T12:43:09.747Z,8.86
2023-01-29T12:45:37.632Z,8.89
2023-01-29T12:48:13.956Z,8.94
2023-01-29T12:50:41.105Z,8.97
2023-01-29T12:53:26.698Z,9.05
2023-01-29T12:55:58.857Z,9.13
2023-01-29T12:58:37.224Z,9.22
2023-01-29T13:01:16.516Z,9.33
2023-01-29T13:04:08.847Z,9.40
2023-01-29T13:06:50.741Z,9.47
2023-01-29T13:09:25.890Z,9.49
2023-01-29T13:12:11.431Z,9.55
2023-01-29T13:14:58.698Z,9.58
2023-01-29T13:17:40.591Z,9.65
2023-01-29T13:20:21.261Z,9.65
2023-01-29T13:22:50.381Z,9.66
2023-01-29T13:25:19.548Z,9.69
2023-01-29T13:27:47.911Z,9.68
2023-01-29T13:30:26.163Z,9.69
2023-01-29T13:32:54.905Z,9.67
2023-01-29T13:35:23.702Z,9.65
2023-01-29T13:37:53.767Z,9.62
2023-01-29T13:40:30.113Z,9.60
2023-01-29T13:43:00.209Z,9.59
2023-01-29T13:45:44.329Z,9.57
2023-01-29T13:48:27.832Z,9.56
2023-01-29T13:51:01.410Z,9.53
2023-01-29T13:53:32.800Z,9.53
2023-01-29T13:56:33.062Z,9.53
2023-01-29T13:59:02.998Z,9.50
2023-01-29T14:01:48.049Z,9.49
2023-01-29T14:04:25.504Z,9.47
2023-01-29T14:06:55.081Z,9.48
2023-01-29T14:09:53.706Z,9.46
2023-01-29T14:12:22.955Z,9.45
2023-01-29T14:14:49.647Z,9.45
2023-01-29T14:17:19.009Z,9.46
2023-01-29T14:20:03.320Z,9.47
2023-01-29T14:22:33.193Z,9.50
2023-01-29T14:25:04.315Z,9.50
2023-01-29T14:27:32.088Z,9.53
2023-01-29T14:30:06.949Z,9.56
2023-01-29T14:32:33.940Z,9.61
2023-01-29T14:35:04.827Z,9.62
2023-01-29T14:37:35.766Z,9.62
2023-01-29T14:40:11.426Z,9.65
2023-01-29T14:42:44.183Z,9.66
2023-01-29T14:45:13.695Z,9.67
2023-01-29T14:47:40.200Z,9.69
2023-01-29T14:50:32.919Z,9.69
2023-01-29T14:53:03.662Z,9.70
2023-01-29T14:55:35.668Z,9.72
2023-01-29T14:58:04.069Z,9.73
2023-01-29T15:00:40.867Z,9.73
2023-01-29T15:03:19.468Z,9.73
2023-01-29T15:05:49.317Z,9.74
2023-01-29T15:08:29.990Z,9.72
2023-01-29T15:11:18.131Z,9.73
2023-01-29T15:13:52.323Z,9.70
2023-01-29T15:17:04.234Z,9.71
2023-01-29T15:19:44.574Z,9.69
2023-01-29T15:22:19.333Z,9.66
2023-01-29T15:24:47.995Z,9.65
2023-01-29T15:27:23.323Z,9.63
2023-01-29T15:29:58.737Z,9.62
2023-01-29T15:32:34.193Z,9.60
2023-01-29T15:35:01.931Z,9.60
2023-01-29T15:37:33.908Z,9.57
2023-01-29T15:40:01.632Z,9.55
2023-01-29T15:42:29.825Z,9.54
2023-01-29T15:44:56.617Z,9.53
2023-01-29T15:47:28.452Z,9.51
2023-01-29T15:49:57.295Z,9.48
2023-01-29T15:52:28.882Z,9.47
2023-01-29T15:55:01.519Z,9.46
2023-01-29T15:57:41.034Z,9.43
2023-01-29T16:00:22.255Z,9.43
2023-01-29T16:02:48.853Z,9.41
2023-01-29T16:05:18.918Z,9.39
2023-01-29T16:07:46.501Z,9.38
2023-01-29T16:10:28.384Z,9.37
2023-01-29T16:12:57.473Z,9.35
2023-01-29T16:15:32.235Z,9.33
2023-01-29T16:18:00.572Z,9.33
2023-01-29T16:20:31.790Z,9.29
2023-01-29T16:22:59.567Z,9.29
2023-01-29T16:25:26.619Z,9.28
2023-01-29T16:27:53.274Z,9.26
2023-01-29T16:30:19.990Z,9.24
2023-01-29T16:32:46.645Z,9.23
2023-01-29T16:35:17.251Z,9.21
2023-01-29T16:37:48.996Z,9.20
2023-01-29T16:40:26.586Z,9.19
2023-01-29T16:43:28.396Z,9.16
2023-01-29T16:46:19.609Z,9.15
2023-01-29T16:48:47.943Z,9.13
2023-01-29T16:51:20.831Z,9.12
2023-01-29T16:53:59.939Z,9.10
2023-01-29T16:56:30.273Z,9.08
2023-01-29T16:58:57.787Z,9.07
2023-01-29T17:01:26.641Z,9.07
2023-01-29T17:04:02.791Z,9.05
2023-01-29T17:06:31.648Z,9.04
2023-01-29T17:08:58.791Z,9.04
2023-01-29T17:11:34.678Z,9.04
2023-01-29T17:14:01.629Z,9.03
2023-01-29T17:16:34.086Z,9.00
2023-01-29T17:19:01.248Z,9.00
2023-01-29T17:21:29.942Z,9.00
2023-01-29T17:23:56.465Z,9.00
2023-01-29T17:26:24.691Z,8.98
2023-01-29T17:28:51.650Z,9.00
2023-01-29T17:31:18.359Z,8.98
2023-01-29T17:33:45.951Z,8.96
2023-01-29T17:36:15.879Z,8.96
2023-01-29T17:38:42.725Z,8.92
2023-01-29T17:41:16.213Z,8.87
2023-01-29T17:43:44.403Z,8.85
2023-01-29T17:46:16.695Z,8.82
2023-01-29T17:48:44.029Z,8.79
2023-01-29T17:51:17.008Z,8.77
2023-01-29T17:53:46.422Z,8.74
2023-01-29T17:56:23.155Z,8.70
2023-01-29T17:58:49.724Z,8.66
2023-01-29T18:01:16.312Z,8.66
2023-01-29T18:03:42.958Z,8.66
2023-01-29T18:06:14.541Z,8.61
2023-01-29T18:08:41.143Z,8.61
2023-01-29T18:11:12.590Z,8.61
2023-01-29T18:13:41.778Z,8.61
2023-01-29T18:16:08.316Z,8.61
2023-01-29T18:18:35.285Z,8.60
2023-01-29T18:21:01.940Z,8.59
2023-01-29T18:23:31.105Z,8.56
2023-01-29T18:25:57.825Z,8.51
2023-01-29T18:28:25.027Z,8.46
2023-01-29T18:30:51.741Z,8.45
2023-01-29T18:33:18.501Z,8.40
2023-01-29T18:35:45.586Z,8.39
2023-01-29T18:38:12.194Z,8.37
2023-01-29T18:40:38.713Z,8.32
2023-01-29T18:43:05.243Z,8.28
2023-01-29T18:45:31.859Z,8.26
2023-01-29T18:47:58.528Z,8.24
2023-01-29T18:50:26.459Z,8.19
2023-01-29T18:52:54.250Z,8.17
2023-01-29T18:55:21.542Z,8.16
2023-01-29T18:58:25.118Z,8.15
2023-01-29T19:00:38.515Z,8.05
2023-01-29T19:03:05.251Z,8.05
2023-01-29T19:05:33.961Z,8.02
2023-01-29T19:08:01.904Z,8.01
2023-01-29T19:10:28.480Z,7.97
2023-01-29T19:12:55.191Z,7.93
2023-01-29T19:15:22.797Z,7.90
2023-01-29T19:17:52.486Z,7.88
2023-01-29T19:20:19.308Z,7.84
2023-01-29T19:22:46.173Z,7.81
2023-01-29T19:25:12.879Z,7.76
2023-01-29T19:27:39.507Z,7.70
2023-01-29T19:30:06.890Z,7.64
2023-01-29T19:32:33.497Z,7.61
2023-01-29T19:35:00.220Z,7.56
2023-01-29T19:37:28.337Z,7.52
2023-01-29T19:39:54.818Z,7.50
2023-01-29T19:42:21.468Z,7.48
2023-01-29T19:44:48.197Z,7.45
2023-01-29T19:47:15.039Z,7.46
2023-01-29T19:49:41.753Z,7.43
2023-01-29T19:52:15.016Z,7.42
2023-01-29T19:54:48.838Z,7.46
2023-01-29T19:57:15.391Z,7.46
2023-01-29T19:59:45.611Z,7.48
2023-01-29T20:02:12.456Z,7.51
2023-01-29T20:04:39.099Z,7.53
2023-01-29T20:07:05.690Z,7.59
2023-01-29T20:09:32.275Z,7.64
2023-01-29T20:11:58.793Z,7.64
2023-01-29T20:14:25.575Z,7.64
2023-01-29T20:16:52.186Z,7.65
2023-01-29T20:19:20.609Z,7.69
2023-01-29T20:21:48.886Z,7.72
2023-01-29T20:24:15.511Z,7.75
2023-01-29T20:26:42.172Z,7.75
2023-01-29T20:29:10.011Z,7.78
2023-01-29T20:31:36.521Z,7.81
2023-01-29T20:34:03.106Z,7.81
2023-01-29T20:36:29.615Z,7.83
2023-01-29T20:38:56.294Z,7.86
2023-01-29T20:41:22.995Z,7.86
2023-01-29T20:43:50.947Z,7.88
2023-01-29T20:46:18.755Z,7.89
2023-01-29T20:48:45.378Z,7.90
2023-01-29T20:51:17.739Z,7.92
2023-01-29T20:53:45.744Z,7.92
2023-01-29T20:56:13.791Z,7.93
2023-01-29T20:58:43.627Z,7.93
2023-01-29T21:01:12.309Z,7.94
2023-01-29T21:03:39.920Z,7.96
2023-01-29T21:06:08.647Z,7.95
2023-01-29T21:08:35.986Z,7.95
2023-01-29T21:11:03.932Z,7.95
2023-01-29T21:13:30.946Z,7.95
2023-01-29T21:15:57.823Z,7.96
2023-01-29T21:18:26.329Z,7.95
2023-01-29T21:20:54.470Z,7.96
2023-01-29T21:23:21.745Z,7.95
2023-01-29T21:25:48.295Z,7.96
2023-01-29T21:28:15.827Z,7.98
2023-01-29T21:30:42.621Z,7.96
2023-01-29T21:33:09.194Z,7.96
2023-01-29T21:35:37.748Z,7.96
2023-01-29T21:38:04.921Z,7.96
2023-01-29T21:40:31.807Z,7.99
2023-01-29T21:43:13.813Z,7.97
2023-01-29T21:45:41.074Z,7.97
2023-01-29T21:48:09.091Z,7.98
2023-01-29T21:50:35.811Z,7.98
2023-01-29T21:53:03.338Z,7.98
2023-01-29T21:55:30.208Z,7.97
2023-01-29T21:57:57.199Z,7.98
2023-01-29T22:00:23.892Z,7.97
2023-01-29T22:02:51.230Z,7.99
2023-01-29T22:05:19.980Z,7.98
2023-01-29T22:07:48.219Z,7.98
2023-01-29T22:10:16.204Z,7.98
2023-01-29T22:12:44.560Z,7.99
2023-01-29T22:15:11.921Z,8.00
2023-01-29T22:17:41.219Z,7.99
2023-01-29T22:20:12.786Z,8.00
2023-01-29T22:22:39.523Z,8.01
2023-01-29T22:25:06.429Z,8.01
2023-01-29T22:27:33.872Z,8.00
2023-01-29T22:30:00.480Z,8.01
2023-01-29T22:32:27.089Z,8.01
2023-01-29T22:34:53.754Z,8.01
2023-01-29T22:37:20.269Z,8.01
2023-01-29T22:39:47.065Z,8.01
2023-01-29T22:42:13.634Z,8.02
2023-01-29T22:44:40.190Z,8.03
2023-01-29T22:47:06.729Z,8.02
2023-01-29T22:49:33.284Z,8.03
2023-01-29T22:52:11.946Z,8.04
2023-01-29T22:54:40.876Z,8.05
2023-01-29T22:57:10.333Z,8.06
2023-01-29T22:59:37.261Z,8.07
2023-01-29T23:02:04.514Z,8.09
2023-01-29T23:04:31.199Z,8.11
2023-01-29T23:06:57.890Z,8.13
2023-01-29T23:09:24.480Z,8.12
2023-01-29T23:11:51.078Z,8.14
2023-01-29T23:14:17.777Z,8.16
2023-01-29T23:16:44.334Z,8.17
2023-01-29T23:19:12.122Z,8.17
2023-01-29T23:21:39.639Z,8.17
2023-01-29T23:24:07.450Z,8.19
2023-01-29T23:26:52.936Z,8.19
2023-01-29T23:29:19.478Z,8.17
2023-01-29T23:31:46.187Z,8.16
2023-01-29T23:34:13.798Z,8.17
2023-01-29T23:36:40.521Z,8.16
2023-01-29T23:39:07.116Z,8.16
2023-01-29T23:41:33.698Z,8.14
2023-01-29T23:44:00.298Z,8.15
2023-01-29T23:46:26.877Z,8.15
2023-01-29T23:48:53.447Z,8.15
2023-01-29T23:51:19.969Z,8.14
2023-01-29T23:53:46.587Z,8.13
2023-01-29T23:56:13.606Z,8.11
2023-01-29T23:58:40.173Z,8.13
